createdAt,value
2017-11-19T07:41:27.037Z,3.70
2017-11-19T07:44:00.943Z,3.56
2017-11-19T07:46:38.751Z,3.54
2017-11-19T07:49:09.348Z,3.56
2017-11-19T07:51:40.299Z,3.59
2017-11-19T07:54:12.038Z,3.66
2017-11-19T07:56:43.277Z,3.59
2017-11-19T07:59:14.320Z,3.60
2017-11-19T08:04:26.682Z,3.74
2017-11-19T08:06:57.584Z,3.87
2017-11-19T08:09:28.469Z,3.91
2017-11-19T08:14:44.358Z,4.06
2017-11-19T08:17:16.077Z,4.13
2017-11-19T08:19:48.606Z,4.19
2017-11-19T08:22:19.966Z,4.15
2017-11-19T08:24:53.813Z,4.15
2017-11-19T08:27:26.454Z,4.17
2017-11-19T08:43:30.849Z,10.92
2017-11-19T08:50:11.702Z,18.66
2017-11-19T08:52:40.129Z,19.25
2017-11-19T08:57:57.257Z,21.30
2017-11-19T09:00:25.678Z,20.99
2017-11-19T09:02:54.059Z,20.91
2017-11-19T09:05:23.064Z,20.96
2017-11-19T09:07:51.465Z,21.02
2017-11-19T09:10:21.352Z,21.36
2017-11-19T09:12:49.753Z,22.02
2017-11-19T09:15:20.630Z,22.06
2017-11-19T09:17:49.512Z,22.25
2017-11-19T09:20:19.237Z,22.23
2017-11-19T09:22:47.676Z,22.42
2017-11-19T09:25:16.180Z,22.42
2017-11-19T09:27:44.599Z,24.32
2017-11-19T09:30:13.067Z,23.35
2017-11-19T09:39:59.105Z,23.48
2017-11-19T09:42:27.498Z,23.43
2017-11-19T09:44:55.929Z,23.94
2017-11-19T09:47:26.516Z,23.84
2017-11-19T09:49:58.189Z,23.53
2017-11-19T09:52:27.834Z,23.35
2017-11-19T09:55:08.235Z,23.44
2017-11-19T09:57:36.615Z,23.98
2017-11-19T10:00:05.047Z,24.16
2017-11-19T10:02:33.428Z,25.39
2017-11-19T10:05:01.862Z,24.57
2017-11-19T10:07:30.277Z,25.04
2017-11-19T10:10:00.270Z,25.11
2017-11-19T10:12:28.674Z,26.14
2017-11-19T10:14:54.872Z,26.51
2017-11-19T10:17:21.078Z,25.91
2017-11-19T10:19:47.217Z,25.47
2017-11-19T10:22:14.348Z,25.47
2017-11-19T10:24:44.637Z,26.17
2017-11-19T10:27:13.546Z,26.26
2017-11-19T10:29:42.135Z,26.27
2017-11-19T10:32:08.385Z,25.81
2017-11-19T10:34:35.938Z,25.50
2017-11-19T10:37:03.494Z,25.89
2017-11-19T10:39:31.979Z,25.72
2017-11-19T10:41:59.521Z,25.37
2017-11-19T10:44:27.108Z,24.06
2017-11-19T10:46:54.604Z,24.01
2017-11-19T10:49:22.217Z,23.96
2017-11-19T10:51:50.311Z,23.70
2017-11-19T10:54:18.401Z,23.86
2017-11-19T10:56:46.299Z,23.08
2017-11-19T10:59:13.853Z,22.91
2017-11-19T11:01:41.383Z,23.27
2017-11-19T11:04:08.960Z,22.19
2017-11-19T11:06:36.525Z,21.49
2017-11-19T11:09:04.061Z,21.40
2017-11-19T11:11:31.561Z,21.44
2017-11-19T11:13:59.122Z,20.77
2017-11-19T11:16:26.618Z,21.16
2017-11-19T11:18:54.189Z,20.77
2017-11-19T11:21:22.637Z,20.85
2017-11-19T11:23:50.194Z,20.78
2017-11-19T11:26:20.197Z,20.44
2017-11-19T11:28:47.762Z,21.74
2017-11-19T11:31:16.593Z,22.09
2017-11-19T11:33:44.507Z,22.04
2017-11-19T11:36:13.526Z,22.09
2017-11-19T11:38:42.182Z,22.61
2017-11-19T11:41:09.684Z,22.83
2017-11-19T11:43:38.153Z,23.30
2017-11-19T11:46:08.635Z,22.10
2017-11-19T11:48:38.576Z,20.59
2017-11-19T11:51:07.981Z,20.21
2017-11-19T11:53:39.808Z,19.96
2017-11-19T11:56:07.956Z,19.55
2017-11-19T11:58:35.541Z,18.34
2017-11-19T12:01:03.082Z,17.94
2017-11-19T12:03:30.581Z,17.45
2017-11-19T12:05:58.125Z,16.31
2017-11-19T12:08:25.633Z,15.36
2017-11-19T12:10:53.171Z,16.87
2017-11-19T12:13:20.662Z,18.51
2017-11-19T12:15:49.157Z,19.43
2017-11-19T12:18:16.666Z,20.02
2017-11-19T12:20:44.833Z,17.84
2017-11-19T12:23:12.505Z,16.79
2017-11-19T12:25:40.046Z,16.43
2017-11-19T12:28:07.550Z,16.84
2017-11-19T12:30:38.804Z,18.73
2017-11-19T12:33:06.364Z,20.44
2017-11-19T12:35:33.938Z,20.81
2017-11-19T12:52:13.135Z,22.48
2017-11-19T12:54:46.242Z,22.80
2017-11-19T12:57:21.329Z,23.08
2017-11-19T12:59:54.467Z,23.29
2017-11-19T13:02:26.215Z,23.78
2017-11-19T13:05:14.579Z,23.63
2017-11-19T13:07:48.238Z,23.71
2017-11-19T13:10:18.289Z,23.56
2017-11-19T13:12:49.494Z,23.75
2017-11-19T13:15:22.418Z,23.89
2017-11-19T13:17:53.025Z,24.05
2017-11-19T13:20:24.487Z,23.96
2017-11-19T13:34:39.518Z,23.66
2017-11-19T13:37:08.950Z,23.78
2017-11-19T13:39:39.639Z,23.79
2017-11-19T13:42:10.996Z,23.65
2017-11-19T13:47:08.231Z,25.45
2017-11-19T13:49:39.832Z,23.63
2017-11-19T13:52:09.390Z,23.09
2017-11-19T14:02:58.314Z,10.82
2017-11-19T14:05:32.075Z,8.97
2017-11-19T14:08:08.308Z,8.17
2017-11-19T14:10:42.462Z,7.50
2017-11-19T14:13:17.304Z,7.06
2017-11-19T14:15:48.109Z,6.90
2017-11-19T14:18:21.292Z,6.72
2017-11-19T14:20:53.793Z,6.56
2017-11-19T14:23:23.733Z,6.69
2017-11-19T14:26:01.601Z,6.57
2017-11-19T14:28:32.380Z,6.53
2017-11-19T14:31:02.472Z,6.56
2017-11-19T14:33:37.133Z,6.59
2017-11-19T14:36:07.976Z,6.50
2017-11-19T14:38:37.621Z,6.52
2017-11-19T14:41:07.551Z,6.46
2017-11-19T14:43:39.114Z,6.57
2017-11-19T14:46:17.704Z,6.50
2017-11-19T14:48:48.632Z,6.38
2017-11-19T14:51:18.541Z,6.41
2017-11-19T14:53:48.399Z,6.36
2017-11-19T14:56:18.027Z,6.39
2017-11-19T15:01:26.023Z,6.39
2017-11-19T15:03:56.510Z,6.32
2017-11-19T15:06:26.785Z,6.35
2017-11-19T15:08:57.984Z,6.26
2017-11-19T15:11:30.809Z,6.29
2017-11-19T15:14:02.926Z,6.21
2017-11-19T15:16:37.588Z,6.15
2017-11-19T15:19:11.263Z,6.23
2017-11-19T15:21:45.905Z,6.12
2017-11-19T15:24:16.665Z,6.13
2017-11-19T15:26:46.587Z,6.15
2017-11-19T15:29:34.979Z,6.07
2017-11-19T15:32:13.281Z,6.06
2017-11-19T15:36:32.363Z,6.06
2017-11-19T15:39:02.510Z,6.01
2017-11-19T15:41:32.691Z,6.02
2017-11-19T15:44:07.302Z,6.01
2017-11-19T15:46:40.153Z,6.01
2017-11-19T15:49:10.201Z,5.98
2017-11-19T15:51:40.034Z,5.98
2017-11-19T15:54:10.842Z,6.09
2017-11-19T15:56:41.307Z,6.03
2017-11-19T15:59:11.225Z,6.06
2017-11-19T16:01:53.056Z,6.03
2017-11-19T16:04:22.861Z,6.04
2017-11-19T16:06:55.749Z,5.98
2017-11-19T16:09:25.906Z,5.92
2017-11-19T16:11:57.915Z,5.94
2017-11-19T16:14:28.600Z,5.86
2017-11-19T16:17:04.988Z,5.83
2017-11-19T16:19:39.744Z,5.79
2017-11-19T16:22:09.817Z,5.75
2017-11-19T16:24:40.978Z,5.72
2017-11-19T16:27:13.714Z,5.64
2017-11-19T16:29:43.797Z,5.74
2017-11-19T16:32:17.034Z,5.64
2017-11-19T16:34:47.060Z,5.63
2017-11-19T16:37:21.213Z,5.57
2017-11-19T16:39:51.012Z,5.56
2017-11-19T16:42:24.901Z,5.45
2017-11-19T16:45:00.456Z,5.44
2017-11-19T16:47:30.582Z,5.45
2017-11-19T16:50:00.569Z,5.43
2017-11-19T16:52:30.879Z,5.47
2017-11-19T16:55:01.502Z,5.32
2017-11-19T16:57:44.100Z,5.42
2017-11-19T17:05:55.628Z,5.39
2017-11-19T17:08:28.995Z,5.37
2017-11-19T17:10:59.188Z,5.25
2017-11-19T17:13:29.216Z,5.30
2017-11-19T17:16:04.666Z,5.38
2017-11-19T17:18:37.007Z,5.32
2017-11-19T17:21:11.663Z,5.37
2017-11-19T17:23:41.734Z,5.37
2017-11-19T17:26:15.080Z,5.29
2017-11-19T17:28:50.450Z,5.24
2017-11-19T17:31:20.491Z,5.24
2017-11-19T17:33:54.225Z,5.19
2017-11-19T17:36:28.324Z,5.23
2017-11-19T17:38:58.408Z,5.14
2017-11-19T17:41:32.754Z,5.19
2017-11-19T17:44:08.491Z,5.28
2017-11-19T17:46:53.366Z,5.37
2017-11-19T17:49:26.395Z,5.16
2017-11-19T17:51:59.468Z,5.23
2017-11-19T17:54:29.532Z,5.21
2017-11-19T17:57:04.443Z,5.22
2017-11-19T17:59:42.040Z,5.23
2017-11-19T18:02:19.619Z,5.29
2017-11-19T18:04:53.018Z,5.25
2017-11-19T18:07:26.745Z,5.46
2017-11-19T18:09:56.873Z,5.32
2017-11-19T18:12:26.965Z,5.45
2017-11-19T18:14:57.513Z,5.34
2017-11-19T18:17:34.414Z,5.46
2017-11-19T18:20:09.415Z,5.43
2017-11-19T18:22:39.994Z,5.48
2017-11-19T18:25:09.963Z,5.43
2017-11-19T18:27:44.911Z,5.40
2017-11-19T18:30:14.922Z,5.41
2017-11-19T18:32:45.484Z,5.34
2017-11-19T18:35:15.866Z,5.39
2017-11-19T18:37:46.142Z,5.38
2017-11-19T18:40:17.060Z,5.26
2017-11-19T18:42:49.038Z,5.34
2017-11-19T18:45:19.569Z,5.33
2017-11-19T18:47:50.789Z,5.28
2017-11-19T18:50:22.898Z,5.26
2017-11-19T18:52:53.094Z,5.30
2017-11-19T18:55:23.158Z,5.28
2017-11-19T18:57:53.401Z,5.31
2017-11-19T19:00:26.166Z,5.28
2017-11-19T19:02:56.618Z,5.34
2017-11-19T19:05:28.017Z,5.33
2017-11-19T19:07:58.845Z,5.30
2017-11-19T19:10:39.129Z,5.37
2017-11-19T19:13:13.282Z,5.36
2017-11-19T19:15:44.927Z,5.35
2017-11-19T19:18:19.205Z,5.20
2017-11-19T19:20:51.696Z,5.15
2017-11-19T19:23:26.221Z,4.99
2017-11-19T19:26:08.464Z,5.08
2017-11-19T19:28:44.746Z,5.23
2017-11-19T19:31:22.848Z,5.16
2017-11-19T19:34:14.063Z,5.10
2017-11-19T19:36:48.404Z,5.22
2017-11-19T19:39:29.149Z,5.26
2017-11-19T19:42:05.769Z,5.32
2017-11-19T19:44:36.905Z,5.34
2017-11-19T19:47:19.255Z,5.25
2017-11-19T19:49:49.495Z,5.33
2017-11-19T19:52:20.297Z,5.32
2017-11-19T19:54:51.066Z,5.37
2017-11-19T19:57:21.060Z,5.36
2017-11-19T19:59:52.947Z,5.37
2017-11-19T20:02:22.876Z,5.40
2017-11-19T20:04:56.392Z,5.40
2017-11-19T20:07:32.769Z,5.42
2017-11-19T20:10:32.951Z,5.35
2017-11-19T20:15:52.685Z,5.43
2017-11-19T20:18:23.981Z,5.36
2017-11-19T20:21:07.080Z,5.36
2017-11-19T20:23:37.319Z,5.33
2017-11-19T20:26:36.594Z,5.37
2017-11-19T20:29:17.221Z,5.32
2017-11-19T20:31:51.812Z,5.38
2017-11-19T20:34:44.173Z,5.38
2017-11-19T20:37:17.586Z,5.34
2017-11-19T20:39:55.014Z,5.34
2017-11-19T20:42:26.095Z,5.49
2017-11-19T20:44:56.736Z,5.38
2017-11-19T20:47:34.955Z,5.35
2017-11-19T20:50:09.110Z,5.34
2017-11-19T20:52:39.804Z,5.37
2017-11-19T20:55:12.911Z,5.46
2017-11-19T20:57:45.607Z,5.35
2017-11-19T21:00:22.836Z,5.41
2017-11-19T21:02:58.886Z,5.39
2017-11-19T21:05:38.476Z,5.50
2017-11-19T21:11:17.762Z,5.37
2017-11-19T21:13:51.996Z,5.46
2017-11-19T21:16:24.020Z,5.50
2017-11-19T21:18:54.939Z,5.52
2017-11-19T21:21:31.000Z,5.55
2017-11-19T21:24:03.066Z,5.53
2017-11-19T21:26:37.685Z,5.49
2017-11-19T21:29:10.688Z,5.51
2017-11-19T21:31:43.253Z,5.46
2017-11-19T21:34:17.857Z,5.55
2017-11-19T21:36:50.064Z,5.50
2017-11-19T21:39:20.236Z,5.49
2017-11-19T21:41:50.145Z,5.57
2017-11-19T21:44:20.061Z,5.51
2017-11-19T21:46:50.064Z,5.34
2017-11-19T21:49:20.535Z,5.42
2017-11-19T21:51:50.412Z,5.49
2017-11-19T21:54:20.378Z,5.42
2017-11-19T21:56:54.269Z,5.36
2017-11-19T21:59:23.935Z,5.41
2017-11-19T22:01:53.592Z,5.39
2017-11-19T22:04:39.382Z,5.38
2017-11-19T22:07:09.797Z,5.42
2017-11-19T22:09:43.043Z,5.41
2017-11-19T22:12:15.570Z,5.41
2017-11-19T22:14:45.835Z,5.49
2017-11-19T22:17:16.765Z,5.30
2017-11-19T22:19:46.649Z,5.34
2017-11-19T22:22:16.882Z,5.39
2017-11-19T22:24:47.527Z,5.38
2017-11-19T22:27:17.491Z,5.42
2017-11-19T22:29:47.400Z,5.40
2017-11-19T22:32:19.150Z,5.44
2017-11-19T22:34:49.363Z,5.46
2017-11-19T22:37:19.308Z,5.49
2017-11-19T22:39:49.185Z,5.46
2017-11-19T22:42:18.845Z,5.47
2017-11-19T22:44:48.762Z,5.49
2017-11-19T22:47:18.445Z,5.55
2017-11-19T22:49:48.319Z,5.48
2017-11-19T22:52:18.825Z,5.40
2017-11-19T22:54:50.405Z,5.43
2017-11-19T22:57:21.118Z,5.39
2017-11-19T22:59:51.501Z,5.39
2017-11-19T23:02:21.374Z,5.50
2017-11-19T23:05:00.140Z,5.48
2017-11-19T23:07:38.991Z,5.43
2017-11-19T23:10:15.346Z,5.38
2017-11-19T23:12:47.636Z,5.37
2017-11-19T23:15:34.206Z,5.38
2017-11-19T23:18:04.642Z,5.48
2017-11-19T23:20:34.560Z,5.49
2017-11-19T23:23:04.525Z,5.53
2017-11-19T23:25:34.518Z,5.35
2017-11-19T23:28:04.436Z,5.46
2017-11-19T23:30:34.540Z,5.37
2017-11-19T23:33:05.387Z,5.53
2017-11-19T23:35:35.386Z,5.57
2017-11-19T23:38:05.640Z,5.47
2017-11-19T23:40:35.978Z,5.46
2017-11-19T23:43:06.015Z,5.48
2017-11-19T23:45:37.323Z,5.42
2017-11-19T23:48:07.644Z,5.37
2017-11-19T23:50:37.887Z,5.43
2017-11-19T23:53:09.598Z,5.57
2017-11-19T23:55:40.230Z,5.43
2017-11-19T23:58:14.156Z,5.41
